createdAt,value
2023-03-11T00:00:18.925Z,56.00
2023-03-11T00:00:50.930Z,56.00
2023-03-11T00:01:22.670Z,56.67
2023-03-11T00:02:27.794Z,59.67
2023-03-11T00:03:08.156Z,61.33
2023-03-11T00:03:44.046Z,63.00
2023-03-11T00:04:15.834Z,64.33
2023-03-11T00:04:47.574Z,65.67
2023-03-11T00:05:20.764Z,67.00
2023-03-11T00:05:53.816Z,68.00
2023-03-11T00:07:01.088Z,71.00
2023-03-11T00:08:09.360Z,79.00
2023-03-11T00:08:41.394Z,85.33
2023-03-11T00:09:45.515Z,88.67
2023-03-11T00:10:30.093Z,87.33
2023-03-11T00:11:02.096Z,86.00
2023-03-11T00:12:07.785Z,84.67
2023-03-11T00:13:16.393Z,84.00
2023-03-11T00:13:49.111Z,84.00
2023-03-11T00:14:20.932Z,84.00
2023-03-11T00:14:52.739Z,84.00
2023-03-11T00:15:58.108Z,84.00
2023-03-11T00:16:31.183Z,84.00
2023-03-11T00:17:04.100Z,84.67
2023-03-11T00:17:37.121Z,85.00
2023-03-11T00:18:41.225Z,88.67
2023-03-11T00:19:14.083Z,90.67
2023-03-11T00:19:47.174Z,90.67
2023-03-11T00:20:26.217Z,91.00
2023-03-11T00:21:01.445Z,92.00
2023-03-11T00:21:33.739Z,93.67
2023-03-11T00:22:07.049Z,94.00
2023-03-11T00:22:38.849Z,94.00
2023-03-11T00:23:13.149Z,93.00
2023-03-11T00:23:46.874Z,93.00
2023-03-11T00:24:51.004Z,92.00
2023-03-11T00:25:30.004Z,92.00
2023-03-11T00:26:05.118Z,93.00
2023-03-11T00:26:39.990Z,94.00
2023-03-11T00:27:13.036Z,99.33
2023-03-11T00:27:44.863Z,108.00
2023-03-11T00:28:17.182Z,110.00
2023-03-11T00:28:49.554Z,110.67
2023-03-11T00:29:22.071Z,113.00
2023-03-11T00:30:28.024Z,110.00
2023-03-11T00:30:59.910Z,110.00
2023-03-11T00:31:31.744Z,111.00
2023-03-11T00:32:38.171Z,109.33
2023-03-11T00:33:12.768Z,109.67
2023-03-11T00:33:45.765Z,110.33
2023-03-11T00:34:17.547Z,110.00
2023-03-11T00:34:52.999Z,109.33
2023-03-11T00:35:28.234Z,109.67
2023-03-11T00:36:00.077Z,110.00
2023-03-11T00:36:31.734Z,110.00
2023-03-11T00:37:06.984Z,110.00
2023-03-11T00:37:38.749Z,109.33
2023-03-11T00:38:15.261Z,109.00
2023-03-11T00:39:23.376Z,108.33
2023-03-11T00:39:56.137Z,108.00
2023-03-11T00:40:31.581Z,107.67
2023-03-11T00:41:37.634Z,107.00
2023-03-11T00:42:41.809Z,107.00
2023-03-11T00:43:38.681Z,107.00
2023-03-11T00:44:46.064Z,107.00
2023-03-11T00:45:52.129Z,106.33
2023-03-11T00:46:29.909Z,104.67
2023-03-11T00:47:04.637Z,103.33
2023-03-11T00:47:36.451Z,102.33
2023-03-11T00:48:09.053Z,102.00
2023-03-11T00:48:40.891Z,102.00
2023-03-11T00:49:16.197Z,102.00
2023-03-11T00:49:47.947Z,102.00
2023-03-11T00:50:44.294Z,102.00
2023-03-11T00:51:17.227Z,102.00
2023-03-11T00:51:52.021Z,101.67
2023-03-11T00:52:27.198Z,100.33
2023-03-11T00:53:00.128Z,100.00
2023-03-11T00:53:35.008Z,100.00
2023-03-11T00:54:06.833Z,100.00
2023-03-11T00:55:23.749Z,101.33
2023-03-11T00:55:56.219Z,101.00
2023-03-11T00:56:35.924Z,101.00
2023-03-11T00:57:09.112Z,100.00
2023-03-11T00:57:42.673Z,100.00
2023-03-11T00:58:15.077Z,99.67
2023-03-11T00:58:50.049Z,99.00
2023-03-11T00:59:25.011Z,98.33
2023-03-11T00:59:59.904Z,99.00
2023-03-11T01:00:34.049Z,99.00
2023-03-11T01:01:13.829Z,98.33
2023-03-11T01:01:45.687Z,98.00
2023-03-11T01:02:52.459Z,97.00
2023-03-11T01:03:24.242Z,97.67
2023-03-11T01:04:32.109Z,98.67
2023-03-11T01:05:07.649Z,97.00
2023-03-11T01:05:43.157Z,92.00
2023-03-11T01:06:18.507Z,92.00
2023-03-11T01:06:52.174Z,92.00
2023-03-11T01:07:25.133Z,92.00
2023-03-11T01:07:58.879Z,92.00
2023-03-11T01:08:32.528Z,92.67
2023-03-11T01:09:38.729Z,93.00
2023-03-11T01:10:14.267Z,93.00
2023-03-11T01:10:49.770Z,93.00
2023-03-11T01:11:25.034Z,93.00
2023-03-11T01:11:57.256Z,93.00
2023-03-11T01:12:32.235Z,93.00
2023-03-11T01:13:06.315Z,94.33
2023-03-11T01:14:02.882Z,96.67
2023-03-11T01:15:26.101Z,101.67
2023-03-11T01:16:01.470Z,103.00
2023-03-11T01:16:33.380Z,104.00
2023-03-11T01:17:05.842Z,104.00
2023-03-11T01:17:39.065Z,105.00
2023-03-11T01:18:13.649Z,108.33
2023-03-11T01:18:49.224Z,111.33
2023-03-11T01:19:21.387Z,114.67
2023-03-11T01:19:54.109Z,116.00
2023-03-11T01:20:27.609Z,115.33
2023-03-11T01:21:01.320Z,115.33
2023-03-11T01:21:36.127Z,115.67
2023-03-11T01:22:11.456Z,116.67
2023-03-11T01:22:43.755Z,117.00
2023-03-11T01:23:18.666Z,116.00
2023-03-11T01:23:51.779Z,117.00
2023-03-11T01:24:23.581Z,118.00
2023-03-11T01:24:56.822Z,118.67
2023-03-11T01:25:30.330Z,119.00
2023-03-11T01:26:05.119Z,118.33
2023-03-11T01:26:36.933Z,117.67
2023-03-11T01:27:12.083Z,114.67
2023-03-11T01:27:45.418Z,110.00
2023-03-11T01:28:17.335Z,104.67
2023-03-11T01:28:52.092Z,99.33
2023-03-11T01:29:23.624Z,93.33
2023-03-11T01:29:57.223Z,89.33
2023-03-11T01:30:30.135Z,86.00
2023-03-11T01:31:02.202Z,86.00
2023-03-11T01:31:33.984Z,86.00
2023-03-11T01:32:39.168Z,84.00
2023-03-11T01:33:16.831Z,82.33
2023-03-11T01:33:48.632Z,82.00
2023-03-11T01:34:23.630Z,82.00
2023-03-11T01:34:55.376Z,81.33
2023-03-11T01:36:01.133Z,79.33
2023-03-11T01:37:05.398Z,77.67
2023-03-11T01:37:37.214Z,78.00
2023-03-11T01:38:45.074Z,78.00
2023-03-11T01:39:51.098Z,82.00
2023-03-11T01:40:42.681Z,85.33
2023-03-11T01:41:17.154Z,91.00
2023-03-11T01:42:24.840Z,92.00
2023-03-11T01:43:01.773Z,92.00
2023-03-11T01:43:47.062Z,91.67
2023-03-11T01:44:19.274Z,92.00
2023-03-11T01:45:50.242Z,92.00
2023-03-11T01:46:52.494Z,90.67
2023-03-11T01:47:39.652Z,89.00
2023-03-11T01:48:12.098Z,88.00
2023-03-11T01:48:55.908Z,88.00
2023-03-11T01:50:03.667Z,88.00
2023-03-11T01:50:43.158Z,88.00
2023-03-11T01:51:28.549Z,88.33
2023-03-11T01:52:07.864Z,89.00
2023-03-11T01:52:42.514Z,89.67
2023-03-11T01:53:47.182Z,90.33
2023-03-11T01:54:23.311Z,90.00
2023-03-11T01:54:56.525Z,90.67
2023-03-11T01:57:20.553Z,34.33
2023-03-11T01:57:53.869Z,72.33
2023-03-11T01:58:58.854Z,87.67
2023-03-11T01:59:36.240Z,92.33
2023-03-11T02:01:05.540Z,100.00
2023-03-11T02:02:26.071Z,101.00
2023-03-11T02:03:02.370Z,104.67
2023-03-11T02:04:09.390Z,107.67
2023-03-11T02:04:44.026Z,108.67
2023-03-11T02:05:17.339Z,108.00
2023-03-11T02:05:52.438Z,103.67
2023-03-11T02:06:28.664Z,104.00
2023-03-11T02:07:03.452Z,102.00
2023-03-11T02:07:39.487Z,100.33
2023-03-11T02:08:11.364Z,101.67
2023-03-11T02:08:46.157Z,101.00
2023-03-11T02:09:24.264Z,94.33
2023-03-11T02:09:56.103Z,94.33
2023-03-11T02:10:28.379Z,94.67
2023-03-11T02:11:33.336Z,97.00
2023-03-11T02:12:11.073Z,96.33
2023-03-11T02:12:50.863Z,97.00
2023-03-11T02:13:24.047Z,96.67
2023-03-11T02:14:00.734Z,99.00
2023-03-11T02:15:08.762Z,106.00
2023-03-11T02:15:41.168Z,103.33
2023-03-11T02:16:14.545Z,106.67
2023-03-11T02:16:46.494Z,103.67
2023-03-11T02:17:50.844Z,103.00
2023-03-11T02:18:22.638Z,102.67
2023-03-11T02:19:31.608Z,102.00
2023-03-11T02:20:21.107Z,101.33
2023-03-11T02:21:33.054Z,101.00
2023-03-11T02:22:05.036Z,101.00
2023-03-11T02:22:37.143Z,101.33
2023-03-11T02:23:09.872Z,101.33
2023-03-11T02:24:08.083Z,101.00
2023-03-11T02:25:01.856Z,101.00
2023-03-11T02:25:46.240Z,100.00
2023-03-11T02:26:44.400Z,99.33
2023-03-11T02:27:55.627Z,101.00
2023-03-11T02:28:29.109Z,101.00
2023-03-11T02:29:34.985Z,102.00
2023-03-11T02:30:08.655Z,103.00
2023-03-11T02:30:44.072Z,103.00
2023-03-11T02:31:16.642Z,102.00
2023-03-11T02:31:49.980Z,102.00
2023-03-11T02:32:22.423Z,101.67
2023-03-11T02:33:32.632Z,101.00
2023-03-11T02:34:08.132Z,101.00
2023-03-11T02:35:17.330Z,101.00
2023-03-11T02:35:49.256Z,100.67
2023-03-11T02:36:38.529Z,100.67
2023-03-11T02:37:46.605Z,101.00
2023-03-11T02:38:18.917Z,101.00
2023-03-11T02:38:50.741Z,101.00
2023-03-11T02:39:36.291Z,110.67
2023-03-11T02:40:22.923Z,120.00
2023-03-11T02:41:28.811Z,105.00
2023-03-11T02:42:05.982Z,104.00
2023-03-11T02:42:37.823Z,104.00
2023-03-11T02:43:16.229Z,136.00
2023-03-11T02:44:21.777Z,181.00
2023-03-11T02:45:03.348Z,129.00
2023-03-11T02:45:40.508Z,86.33
2023-03-11T02:46:18.027Z,76.00
2023-03-11T02:46:50.177Z,75.33
2023-03-11T02:47:22.237Z,82.33
2023-03-11T02:48:28.441Z,75.67
2023-03-11T02:49:04.679Z,70.33
2023-03-11T02:49:37.258Z,71.33
2023-03-11T02:50:13.815Z,75.33
2023-03-11T02:51:18.437Z,74.33
2023-03-11T02:51:53.345Z,71.33
2023-03-11T02:52:28.114Z,72.00
2023-03-11T02:53:39.475Z,67.33
2023-03-11T02:54:12.163Z,60.33
2023-03-11T02:54:43.999Z,59.67
2023-03-11T02:55:18.178Z,59.33
2023-03-11T02:56:22.824Z,59.67
2023-03-11T02:56:56.318Z,59.33
2023-03-11T02:57:29.780Z,60.67
2023-03-11T02:58:02.883Z,63.00
2023-03-11T02:58:35.863Z,64.00
2023-03-11T02:59:10.887Z,64.67
2023-03-11T02:59:42.667Z,66.00
2023-03-11T03:00:50.614Z,65.00
2023-03-11T03:01:25.861Z,61.67
2023-03-11T03:01:57.806Z,61.67
2023-03-11T03:02:29.583Z,62.00
2023-03-11T03:03:01.617Z,62.33
2023-03-11T03:03:36.984Z,62.00
2023-03-11T03:04:41.675Z,62.00
2023-03-11T03:05:14.077Z,63.00
2023-03-11T03:06:19.148Z,63.00
2023-03-11T03:06:51.043Z,62.33
2023-03-11T03:07:22.927Z,62.67
2023-03-11T03:07:54.733Z,62.00
2023-03-11T03:08:26.612Z,62.67
2023-03-11T03:09:56.203Z,64.00
2023-03-11T03:10:28.032Z,64.00
2023-03-11T03:11:03.905Z,64.00
2023-03-11T03:11:35.717Z,64.00
2023-03-11T03:12:08.139Z,64.00
2023-03-11T03:12:44.080Z,64.00
2023-03-11T03:13:15.913Z,64.00
2023-03-11T03:13:47.718Z,62.67
2023-03-11T03:14:54.757Z,63.00
2023-03-11T03:15:27.637Z,62.33
2023-03-11T03:16:00.867Z,62.00
2023-03-11T03:16:35.801Z,61.67
2023-03-11T03:17:07.718Z,61.67
2023-03-11T03:17:39.702Z,63.33
2023-03-11T03:18:14.331Z,72.00
2023-03-11T03:18:47.883Z,72.00
2023-03-11T03:19:55.860Z,71.00
2023-03-11T03:20:27.785Z,70.33
2023-03-11T03:21:02.832Z,70.00
2023-03-11T03:21:37.760Z,71.00
2023-03-11T03:22:09.719Z,71.00
2023-03-11T03:22:42.451Z,71.00
2023-03-11T03:23:47.267Z,70.33
2023-03-11T03:24:20.867Z,69.67
2023-03-11T03:24:53.007Z,69.00
2023-03-11T03:25:57.094Z,68.33
2023-03-11T03:26:30.904Z,67.67
2023-03-11T03:27:02.986Z,66.33
2023-03-11T03:27:35.049Z,63.67
2023-03-11T03:28:10.510Z,63.00
2023-03-11T03:28:42.388Z,63.67
2023-03-11T03:29:14.212Z,62.33
2023-03-11T03:30:18.884Z,62.00
2023-03-11T03:30:54.187Z,63.33
2023-03-11T03:31:25.866Z,64.00
2023-03-11T03:32:00.964Z,64.00
2023-03-11T03:32:32.843Z,64.33
2023-03-11T03:33:05.328Z,65.67
2023-03-11T03:33:37.268Z,65.67
2023-03-11T03:34:44.798Z,34.00
2023-03-11T03:35:16.924Z,16.67
2023-03-11T03:36:07.883Z,29.33
2023-03-11T03:36:39.948Z,26.33
2023-03-11T03:37:11.898Z,10.33
2023-03-11T03:37:47.154Z,6.00
2023-03-11T03:38:20.371Z,3.67
2023-03-11T03:38:59.611Z,3.67
2023-03-11T03:40:08.410Z,3.00
2023-03-11T03:40:47.475Z,2.67
2023-03-11T03:41:23.620Z,2.00
2023-03-11T03:41:55.481Z,2.00
2023-03-11T03:42:28.525Z,2.00
2023-03-11T03:43:55.983Z,1.33
2023-03-11T03:44:28.001Z,1.00
2023-03-11T03:44:59.980Z,1.33
2023-03-11T03:45:31.933Z,2.00
2023-03-11T03:46:05.652Z,2.00
2023-03-11T03:46:38.582Z,2.00
2023-03-11T03:47:42.746Z,2.00
2023-03-11T03:48:14.718Z,2.00
2023-03-11T03:48:47.384Z,2.00
2023-03-11T03:49:19.213Z,2.00
2023-03-11T03:50:26.784Z,2.00
2023-03-11T03:51:04.552Z,2.00
2023-03-11T03:52:22.910Z,2.00
2023-03-11T03:52:55.820Z,2.00
2023-03-11T03:53:31.398Z,2.00
2023-03-11T03:54:03.212Z,2.67
2023-03-11T03:54:35.006Z,3.00
2023-03-11T03:55:40.814Z,3.00
2023-03-11T03:56:15.566Z,3.00
2023-03-11T03:57:20.238Z,3.00
2023-03-11T03:57:52.208Z,3.00
2023-03-11T03:58:24.076Z,3.00
2023-03-11T03:59:29.993Z,3.00
2023-03-11T04:00:05.632Z,3.00
2023-03-11T04:01:13.606Z,4.00
2023-03-11T04:02:21.878Z,4.00
2023-03-11T04:03:28.819Z,4.00
2023-03-11T04:04:03.932Z,4.00
2023-03-11T04:05:10.721Z,5.00
2023-03-11T04:05:45.767Z,5.00
2023-03-11T04:06:26.155Z,5.33
2023-03-11T04:06:59.913Z,6.00
2023-03-11T04:07:36.124Z,6.00
2023-03-11T04:08:12.351Z,6.00
2023-03-11T04:08:48.225Z,6.00
2023-03-11T04:09:21.959Z,7.00
2023-03-11T04:09:56.875Z,8.33
2023-03-11T04:10:31.815Z,9.33
2023-03-11T04:11:05.046Z,10.67
2023-03-11T04:11:39.877Z,12.00
2023-03-11T04:12:17.696Z,12.67
2023-03-11T04:12:55.261Z,14.00
2023-03-11T04:13:29.006Z,15.33
2023-03-11T04:14:05.880Z,16.33
2023-03-11T04:15:11.126Z,20.00
2023-03-11T04:15:44.853Z,23.00
2023-03-11T04:16:22.690Z,25.33
2023-03-11T04:16:55.991Z,26.00
2023-03-11T04:17:30.869Z,25.00
2023-03-11T04:18:05.942Z,25.33
2023-03-11T04:18:39.389Z,46.00
2023-03-11T04:19:13.963Z,67.33
2023-03-11T04:19:48.793Z,55.33
2023-03-11T04:20:23.855Z,44.00
2023-03-11T04:20:58.917Z,40.00
2023-03-11T04:21:34.108Z,38.67
2023-03-11T04:22:07.903Z,39.00
2023-03-11T04:22:42.844Z,38.67
2023-03-11T04:23:17.842Z,39.00
2023-03-11T04:23:53.037Z,40.00
2023-03-11T04:24:30.246Z,42.33
2023-03-11T04:25:37.830Z,44.00
2023-03-11T04:26:13.599Z,43.00
2023-03-11T04:26:46.942Z,43.00
2023-03-11T04:27:21.890Z,44.33
2023-03-11T04:27:57.016Z,47.33
2023-03-11T04:28:31.909Z,50.00
2023-03-11T04:29:06.801Z,52.67
2023-03-11T04:29:41.512Z,97.00
2023-03-11T04:30:17.184Z,353.67
2023-03-11T04:30:49.538Z,430.33
2023-03-11T04:31:24.908Z,398.67
2023-03-11T04:31:59.813Z,396.67
2023-03-11T04:32:35.150Z,332.00
2023-03-11T04:33:08.939Z,258.33
2023-03-11T04:33:43.806Z,237.33
2023-03-11T04:34:19.001Z,219.00
2023-03-11T04:35:26.872Z,180.33
2023-03-11T04:36:34.826Z,119.67
2023-03-11T04:37:06.837Z,112.67
2023-03-11T04:37:40.293Z,101.00
2023-03-11T04:38:13.954Z,81.67
2023-03-11T04:39:21.822Z,45.00
2023-03-11T04:39:57.016Z,41.00
2023-03-11T04:40:31.900Z,41.67
2023-03-11T04:41:07.722Z,41.33
2023-03-11T04:41:42.915Z,39.00
2023-03-11T04:42:19.228Z,30.67
2023-03-11T04:42:53.712Z,31.00
2023-03-11T04:43:29.316Z,32.67
2023-03-11T04:44:02.811Z,33.33
2023-03-11T04:44:38.014Z,30.00
2023-03-11T04:45:45.977Z,37.33
2023-03-11T04:46:20.965Z,38.33
2023-03-11T04:46:55.848Z,40.67
2023-03-11T04:47:30.802Z,42.33
2023-03-11T04:48:05.945Z,42.33
2023-03-11T04:48:40.977Z,38.33
2023-03-11T04:49:16.591Z,32.33
2023-03-11T04:49:51.864Z,32.00
2023-03-11T04:50:26.539Z,32.67
2023-03-11T04:51:01.912Z,32.67
2023-03-11T04:51:34.597Z,29.67
2023-03-11T04:52:09.821Z,26.33
2023-03-11T04:52:44.551Z,23.33
2023-03-11T04:53:16.822Z,25.00
2023-03-11T04:53:51.504Z,28.00
2023-03-11T04:54:24.996Z,28.67
2023-03-11T04:54:58.412Z,27.33
2023-03-11T04:55:31.603Z,24.67
2023-03-11T04:56:07.145Z,24.33
2023-03-11T04:56:39.897Z,22.67
2023-03-11T04:57:11.700Z,19.00
2023-03-11T04:57:44.129Z,16.00
2023-03-11T04:58:16.029Z,12.00
2023-03-11T04:58:50.841Z,10.00
2023-03-11T04:59:22.650Z,10.00
2023-03-11T04:59:54.558Z,11.00
2023-03-11T05:00:26.432Z,33.33
2023-03-11T05:00:58.374Z,47.00
2023-03-11T05:02:05.346Z,23.67
2023-03-11T05:02:40.872Z,15.33
2023-03-11T05:03:15.955Z,13.00
2023-03-11T05:03:47.981Z,12.33
2023-03-11T05:04:19.791Z,11.33
2023-03-11T05:04:51.677Z,11.00
2023-03-11T05:05:26.379Z,10.33
2023-03-11T05:06:00.376Z,10.00
2023-03-11T05:06:34.043Z,10.00
2023-03-11T05:07:08.788Z,10.00
2023-03-11T05:07:43.868Z,10.00
2023-03-11T05:08:15.708Z,10.00
2023-03-11T05:09:36.873Z,10.00
2023-03-11T05:10:09.441Z,10.67
2023-03-11T05:10:42.826Z,12.67
2023-03-11T05:11:47.448Z,13.67
2023-03-11T05:12:19.328Z,13.00
2023-03-11T05:13:26.791Z,44.67
2023-03-11T05:13:58.922Z,35.33
2023-03-11T05:14:31.344Z,33.00
2023-03-11T05:15:03.196Z,28.67
2023-03-11T05:15:35.650Z,23.00
2023-03-11T05:16:07.747Z,18.33
2023-03-11T05:16:39.572Z,15.33
2023-03-11T05:17:13.435Z,13.00
2023-03-11T05:17:45.433Z,11.33
2023-03-11T05:18:17.646Z,11.00
2023-03-11T05:18:49.445Z,10.33
2023-03-11T05:19:35.308Z,10.00
2023-03-11T05:20:40.557Z,10.00
2023-03-11T05:21:12.347Z,10.00
2023-03-11T05:22:17.531Z,10.00
2023-03-11T05:22:49.524Z,10.00
2023-03-11T05:23:21.327Z,10.00
2023-03-11T05:23:53.162Z,10.00
2023-03-11T05:24:27.815Z,9.00
2023-03-11T05:24:59.902Z,9.00
2023-03-11T05:25:33.684Z,9.33
2023-03-11T05:26:06.251Z,10.00
2023-03-11T05:26:38.015Z,10.00
2023-03-11T05:27:09.795Z,10.00
2023-03-11T05:28:15.616Z,10.00
2023-03-11T05:28:47.900Z,10.00
2023-03-11T05:29:53.533Z,10.00
2023-03-11T05:30:25.579Z,10.00
2023-03-11T05:30:58.505Z,10.00
2023-03-11T05:31:31.914Z,10.00
2023-03-11T05:32:04.141Z,10.00
2023-03-11T05:33:10.503Z,10.00
2023-03-11T05:33:45.882Z,10.00
2023-03-11T05:34:53.934Z,11.00
2023-03-11T05:35:26.067Z,11.00
2023-03-11T05:35:59.687Z,11.00
2023-03-11T05:36:32.929Z,11.00
2023-03-11T05:37:07.507Z,11.00
2023-03-11T05:37:41.055Z,11.00
2023-03-11T05:38:15.889Z,11.00
2023-03-11T05:38:55.260Z,11.00
2023-03-11T05:41:24.524Z,37.00
2023-03-11T05:42:00.488Z,57.33
2023-03-11T05:42:35.333Z,66.67
2023-03-11T05:43:10.352Z,80.67
2023-03-11T05:44:06.889Z,87.00
2023-03-11T05:45:13.485Z,87.33
2023-03-11T05:45:48.475Z,92.33
2023-03-11T05:46:31.366Z,95.67
2023-03-11T05:47:06.408Z,96.67
2023-03-11T05:47:42.258Z,100.00
2023-03-11T05:48:17.308Z,100.67
2023-03-11T05:48:50.742Z,105.33
2023-03-11T05:49:28.191Z,102.67
2023-03-11T05:50:11.478Z,116.00
2023-03-11T05:50:46.767Z,102.00
2023-03-11T05:51:22.439Z,95.00
2023-03-11T05:52:05.323Z,92.67
2023-03-11T05:52:40.491Z,89.33
2023-03-11T05:53:16.054Z,91.33
2023-03-11T05:53:49.560Z,102.33
2023-03-11T05:54:23.003Z,105.00
2023-03-11T05:54:55.060Z,106.67
2023-03-11T05:55:30.417Z,95.33
2023-03-11T05:56:06.753Z,95.33
2023-03-11T05:56:42.920Z,99.33
2023-03-11T05:57:15.868Z,99.67
2023-03-11T05:57:55.076Z,98.33
2023-03-11T05:58:27.827Z,96.67
2023-03-11T05:58:59.598Z,98.67
2023-03-11T06:00:12.666Z,122.33
2023-03-11T06:00:46.288Z,121.00
2023-03-11T06:01:27.240Z,106.33
2023-03-11T06:02:23.626Z,103.33
2023-03-11T06:02:55.488Z,102.67
2023-03-11T06:03:27.510Z,102.00
2023-03-11T06:04:32.651Z,183.00
2023-03-11T06:05:08.228Z,122.33
2023-03-11T06:05:50.880Z,98.67
2023-03-11T06:06:55.572Z,88.33
2023-03-11T06:07:29.337Z,91.00
2023-03-11T06:08:02.490Z,92.00
2023-03-11T06:08:35.709Z,91.33
2023-03-11T06:09:13.519Z,92.67
2023-03-11T06:09:45.415Z,92.33
2023-03-11T06:10:17.531Z,95.67
2023-03-11T06:11:25.793Z,121.33
2023-03-11T06:12:01.321Z,114.33
2023-03-11T06:12:35.351Z,96.33
2023-03-11T06:13:07.136Z,95.00
2023-03-11T06:13:42.616Z,96.67
2023-03-11T06:14:15.793Z,92.00
2023-03-11T06:14:48.133Z,92.00
2023-03-11T06:15:54.009Z,92.00
2023-03-11T06:16:27.431Z,93.00
2023-03-11T06:17:36.144Z,93.67
2023-03-11T06:18:09.533Z,93.33
2023-03-11T06:18:43.397Z,94.00
2023-03-11T06:19:52.038Z,95.00
2023-03-11T06:20:25.782Z,111.67
2023-03-11T06:21:01.925Z,172.67
2023-03-11T06:21:36.698Z,116.00
2023-03-11T06:22:41.141Z,90.00
2023-03-11T06:23:13.108Z,87.67
2023-03-11T06:23:45.160Z,88.67
2023-03-11T06:24:17.122Z,90.33
2023-03-11T06:24:49.192Z,91.00
2023-03-11T06:25:21.236Z,92.00
2023-03-11T06:26:29.312Z,94.00
2023-03-11T06:27:01.110Z,98.33
2023-03-11T06:28:10.840Z,163.00
2023-03-11T06:28:45.546Z,128.00
2023-03-11T06:29:54.503Z,111.67
2023-03-11T06:30:29.977Z,70.33
2023-03-11T06:31:11.715Z,60.33
2023-03-11T06:32:20.408Z,46.33
2023-03-11T06:32:55.813Z,52.00
2023-03-11T06:33:27.614Z,53.33
2023-03-11T06:34:32.902Z,50.33
2023-03-11T06:35:04.958Z,52.67
2023-03-11T06:36:12.719Z,53.00
2023-03-11T06:36:44.737Z,49.33
2023-03-11T06:38:13.610Z,45.67
2023-03-11T06:38:48.605Z,47.00
2023-03-11T06:39:58.883Z,129.67
2023-03-11T06:40:30.769Z,95.00
2023-03-11T06:41:05.558Z,88.33
2023-03-11T06:41:37.390Z,77.33
2023-03-11T06:42:11.987Z,69.67
2023-03-11T06:42:48.972Z,64.00
2023-03-11T06:43:22.636Z,58.67
2023-03-11T06:43:54.492Z,55.33
2023-03-11T06:44:26.333Z,58.00
2023-03-11T06:44:58.156Z,58.67
2023-03-11T06:45:29.996Z,73.33
2023-03-11T06:46:11.369Z,101.33
2023-03-11T06:46:43.217Z,87.33
2023-03-11T06:47:15.132Z,83.33
2023-03-11T06:48:19.560Z,142.33
2023-03-11T06:48:52.601Z,111.00
2023-03-11T06:49:24.843Z,96.00
2023-03-11T06:50:06.569Z,90.67
2023-03-11T06:50:42.309Z,82.00
2023-03-11T06:51:14.460Z,78.67
2023-03-11T06:52:21.929Z,77.67
2023-03-11T06:52:56.352Z,77.00
2023-03-11T06:53:31.832Z,111.67
2023-03-11T06:54:07.315Z,218.67
2023-03-11T06:55:11.944Z,115.67
2023-03-11T06:56:01.489Z,109.33
2023-03-11T06:56:36.227Z,174.67
2023-03-11T06:57:10.565Z,174.00
2023-03-11T06:57:46.686Z,130.33
2023-03-11T06:58:21.099Z,111.00
2023-03-11T06:58:54.004Z,86.67
2023-03-11T06:59:58.219Z,72.67
2023-03-11T07:00:33.525Z,66.00
2023-03-11T07:01:10.815Z,57.33
2023-03-11T07:01:44.344Z,58.67
2023-03-11T07:02:19.482Z,55.33
2023-03-11T07:02:51.478Z,176.00
2023-03-11T07:03:56.024Z,189.33
2023-03-11T07:04:31.652Z,133.33
2023-03-11T07:05:03.894Z,110.00
2023-03-11T07:05:37.435Z,100.33
2023-03-11T07:06:15.540Z,95.33
2023-03-11T07:06:47.309Z,80.00
2023-03-11T07:07:20.386Z,71.67
2023-03-11T07:07:55.414Z,68.33
2023-03-11T07:08:28.407Z,73.33
2023-03-11T07:09:00.354Z,77.00
2023-03-11T07:09:33.019Z,77.67
2023-03-11T07:10:05.928Z,78.67
2023-03-11T07:10:37.874Z,76.00
2023-03-11T07:11:14.756Z,74.33
2023-03-11T07:11:46.964Z,73.33
2023-03-11T07:12:19.076Z,65.33
2023-03-11T07:13:25.359Z,63.00
2023-03-11T07:13:57.172Z,57.67
2023-03-11T07:14:30.611Z,59.00
2023-03-11T07:15:02.519Z,63.67
2023-03-11T07:15:34.586Z,66.00
2023-03-11T07:16:11.536Z,65.00
2023-03-11T07:16:44.433Z,63.67
2023-03-11T07:17:52.823Z,67.67
2023-03-11T07:18:24.693Z,68.00
2023-03-11T07:19:03.010Z,68.67
2023-03-11T07:19:34.822Z,177.67
2023-03-11T07:20:07.362Z,231.67
2023-03-11T07:20:39.273Z,160.67
2023-03-11T07:21:14.658Z,129.33
2023-03-11T07:21:46.476Z,119.33
2023-03-11T07:22:18.504Z,125.33
2023-03-11T07:22:50.276Z,162.00
2023-03-11T07:23:22.175Z,169.67
2023-03-11T07:24:26.867Z,128.33
2023-03-11T07:24:59.210Z,105.67
2023-03-11T07:25:31.144Z,80.00
2023-03-11T07:26:03.028Z,77.33
2023-03-11T07:26:35.917Z,88.33
2023-03-11T07:27:07.813Z,91.67
2023-03-11T07:27:39.618Z,93.00
2023-03-11T07:28:12.862Z,93.33
2023-03-11T07:28:45.031Z,128.33
2023-03-11T07:29:17.164Z,121.67
2023-03-11T07:29:49.792Z,120.00
2023-03-11T07:30:21.730Z,124.67
2023-03-11T07:30:54.238Z,123.67
2023-03-11T07:31:28.745Z,116.00
2023-03-11T07:32:00.644Z,101.33
2023-03-11T07:32:32.408Z,96.67
2023-03-11T07:33:04.296Z,88.67
2023-03-11T07:33:37.450Z,80.00
2023-03-11T07:34:12.877Z,70.00
2023-03-11T07:34:44.886Z,57.33
2023-03-11T07:35:16.858Z,62.00
2023-03-11T07:35:49.502Z,70.67
2023-03-11T07:36:24.590Z,69.00
2023-03-11T07:36:56.368Z,72.33
2023-03-11T07:37:28.171Z,74.67
2023-03-11T07:38:00.623Z,75.33
2023-03-11T07:38:32.360Z,77.67
2023-03-11T07:39:05.870Z,78.67
2023-03-11T07:39:38.980Z,77.00
2023-03-11T07:40:11.343Z,70.67
2023-03-11T07:40:44.215Z,70.00
2023-03-11T07:41:16.671Z,69.33
2023-03-11T07:41:48.592Z,71.33
2023-03-11T07:42:20.691Z,69.00
2023-03-11T07:42:52.870Z,61.00
2023-03-11T07:43:24.716Z,61.00
2023-03-11T07:43:59.287Z,65.67
2023-03-11T07:44:31.036Z,67.00
2023-03-11T07:45:03.093Z,66.00
2023-03-11T07:45:34.907Z,66.67
2023-03-11T07:46:13.932Z,67.00
2023-03-11T07:46:46.406Z,73.33
2023-03-11T07:47:18.341Z,95.67
2023-03-11T07:47:50.182Z,136.33
2023-03-11T07:48:22.430Z,162.00
2023-03-11T07:48:55.347Z,296.33
2023-03-11T07:49:27.108Z,394.00
2023-03-11T07:49:58.895Z,315.67
2023-03-11T07:50:30.716Z,247.67
2023-03-11T07:51:06.374Z,204.67
2023-03-11T07:51:41.068Z,186.00
2023-03-11T07:52:12.886Z,181.67
2023-03-11T07:52:45.075Z,209.67
2023-03-11T07:53:16.919Z,198.00
2023-03-11T07:53:49.507Z,196.33
2023-03-11T07:54:21.331Z,229.00
2023-03-11T07:54:53.169Z,283.67
2023-03-11T07:55:25.016Z,328.00
2023-03-11T07:55:58.531Z,359.67
2023-03-11T07:56:34.748Z,424.33
2023-03-11T07:57:08.680Z,472.00
2023-03-11T07:57:40.460Z,471.00
2023-03-11T07:58:12.247Z,464.00
2023-03-11T07:58:46.009Z,468.67
2023-03-11T07:59:17.819Z,470.67
2023-03-11T07:59:49.667Z,468.00
2023-03-11T08:00:21.674Z,469.67
2023-03-11T08:00:55.530Z,455.67
2023-03-11T08:01:31.666Z,446.67
2023-03-11T08:02:03.758Z,463.00
2023-03-11T08:02:35.608Z,486.00
2023-03-11T08:03:07.399Z,491.33
2023-03-11T08:03:39.881Z,488.00
2023-03-11T08:04:14.166Z,491.67
2023-03-11T08:04:46.491Z,488.33
2023-03-11T08:05:20.955Z,480.67
2023-03-11T08:05:53.849Z,474.67
2023-03-11T08:06:32.027Z,471.67
2023-03-11T08:07:04.153Z,481.00
2023-03-11T08:07:36.200Z,487.00
2023-03-11T08:08:08.055Z,490.00
2023-03-11T08:08:40.032Z,483.00
2023-03-11T08:09:44.209Z,471.67
2023-03-11T08:10:16.136Z,473.67
2023-03-11T08:11:28.382Z,487.00
2023-03-11T08:12:00.868Z,484.00
2023-03-11T08:12:32.806Z,471.67
2023-03-11T08:13:05.351Z,457.00
2023-03-11T08:13:37.177Z,453.33
2023-03-11T08:14:41.455Z,458.00
2023-03-11T08:15:13.254Z,477.00
2023-03-11T08:15:45.130Z,472.00
2023-03-11T08:16:21.107Z,461.33
2023-03-11T08:16:54.405Z,457.67
2023-03-11T08:17:26.207Z,455.00
2023-03-11T08:18:31.057Z,426.33
2023-03-11T08:19:06.258Z,394.67
2023-03-11T08:20:02.865Z,400.33
2023-03-11T08:20:34.664Z,414.00
2023-03-11T08:21:08.428Z,390.33
2023-03-11T08:21:40.234Z,430.33
2023-03-11T08:22:12.854Z,472.33
2023-03-11T08:22:57.293Z,467.00
2023-03-11T08:23:30.036Z,452.33
2023-03-11T08:24:04.082Z,450.67
2023-03-11T08:25:09.264Z,449.67
2023-03-11T08:25:44.324Z,449.00
2023-03-11T08:26:19.166Z,447.67
2023-03-11T08:26:50.883Z,442.33
2023-03-11T08:27:22.828Z,438.00
2023-03-11T08:27:58.451Z,429.33
2023-03-11T08:28:30.311Z,421.00
2023-03-11T08:29:38.846Z,455.67
2023-03-11T08:30:12.937Z,480.00